Terminal Aerodrome Forecast
Issued by NWS

Home | Current Version | Previous Version | Text Only | Print | Product List | Glossary Off
Versions: 1 2 3 4 5 6 7 8 9 10 11 12 13 14 15 16 17 18 19 20 21 22 23

000
FTUS43 KABR 072329
TAFATY
TAF
KATY 072329Z 0800/0824 29015G27KT 2SM BLSN OVC014
     FM080300 30020G28KT 5SM BLSN OVC035
     FM081600 31015KT P6SM OVC025
     FM082200 31013KT P6SM OVC050=

USA.gov is the U.S. government's official web portal to all federal, state and local government web resources and services.